createdAt,value
2023-04-02T00:00:09.644Z,0.90
2023-04-02T00:03:22.338Z,1.13
2023-04-02T00:06:35.107Z,1.15
2023-04-02T00:09:42.644Z,1.00
2023-04-02T00:13:00.336Z,0.90
2023-04-02T00:16:05.714Z,1.10
2023-04-02T00:19:18.370Z,1.10
2023-04-02T00:22:28.053Z,1.10
2023-04-02T00:25:42.987Z,1.20
2023-04-02T00:28:45.361Z,1.10
2023-04-02T00:31:52.781Z,1.20
2023-04-02T00:34:58.372Z,1.00
2023-04-02T00:38:02.034Z,1.25
2023-04-02T00:41:21.239Z,1.20
2023-04-02T00:44:23.742Z,1.40
2023-04-02T00:47:32.696Z,1.30
2023-04-02T00:50:39.974Z,1.30
2023-04-02T00:53:48.185Z,1.20
2023-04-02T00:56:54.468Z,1.15
2023-04-02T01:00:09.018Z,1.10
2023-04-02T01:03:22.917Z,1.17
2023-04-02T01:06:34.376Z,1.10
2023-04-02T01:09:51.874Z,1.27
2023-04-02T01:13:23.250Z,1.10
2023-04-02T01:20:33.391Z,1.30
2023-04-02T01:24:07.202Z,1.30
2023-04-02T01:27:27.218Z,1.10
2023-04-02T01:30:36.588Z,1.15
2023-04-02T01:33:41.581Z,1.10
2023-04-02T01:37:13.078Z,1.10
2023-04-02T01:40:50.425Z,1.10
2023-04-02T01:44:14.286Z,1.27
2023-04-02T01:47:20.428Z,1.10
2023-04-02T01:50:31.667Z,1.10
2023-04-02T01:53:40.428Z,1.40
2023-04-02T01:56:47.244Z,1.10
2023-04-02T01:59:49.772Z,1.30
2023-04-02T02:02:55.102Z,1.02
2023-04-02T02:05:58.223Z,1.13
2023-04-02T02:09:06.625Z,1.48
2023-04-02T02:12:14.967Z,1.23
2023-04-02T02:15:22.127Z,1.20
2023-04-02T02:18:27.927Z,1.05
2023-04-02T02:21:46.521Z,1.00
2023-04-02T02:24:54.523Z,1.27
2023-04-02T02:28:17.925Z,1.15
2023-04-02T02:31:33.195Z,1.30
2023-04-02T02:34:45.866Z,1.23
2023-04-02T02:37:57.221Z,1.20
2023-04-02T02:41:10.417Z,1.20
2023-04-02T02:44:28.728Z,3.63
2023-04-02T02:47:34.893Z,1.20
2023-04-02T02:50:41.218Z,1.20
2023-04-02T02:53:56.312Z,1.20
2023-04-02T02:57:04.319Z,1.20
2023-04-02T03:00:09.953Z,1.35
2023-04-02T03:03:24.986Z,1.23
2023-04-02T03:06:32.230Z,1.42
2023-04-02T03:09:57.271Z,1.45
2023-04-02T03:16:13.199Z,1.20
2023-04-02T03:19:47.948Z,1.30
2023-04-02T03:23:01.262Z,1.30
2023-04-02T03:26:29.656Z,1.30
2023-04-02T03:29:42.280Z,1.50
2023-04-02T03:32:49.321Z,1.45
2023-04-02T03:35:57.955Z,1.42
2023-04-02T03:39:10.007Z,1.60
2023-04-02T03:42:18.384Z,1.60
2023-04-02T03:45:28.616Z,1.33
2023-04-02T03:48:40.911Z,1.42
2023-04-02T03:52:00.493Z,1.30
2023-04-02T03:55:15.914Z,1.20
2023-04-02T03:58:29.732Z,1.60
2023-04-02T04:02:02.602Z,1.48
2023-04-02T04:05:06.918Z,1.38
2023-04-02T04:08:17.690Z,1.33
2023-04-02T04:11:29.789Z,1.52
2023-04-02T04:14:38.576Z,1.23
2023-04-02T04:18:11.694Z,1.40
2023-04-02T04:24:39.876Z,1.30
2023-04-02T04:28:08.745Z,1.15
2023-04-02T04:31:30.936Z,1.50
2023-04-02T04:34:51.505Z,1.40
2023-04-02T04:38:04.778Z,1.23
2023-04-02T04:41:28.964Z,1.60
2023-04-02T04:45:01.075Z,1.65
2023-04-02T04:48:05.997Z,1.42
2023-04-02T04:51:20.620Z,1.80
2023-04-02T04:54:31.107Z,1.92
2023-04-02T04:57:38.046Z,1.80
2023-04-02T05:00:54.550Z,1.75
2023-04-02T05:04:12.883Z,1.65
2023-04-02T05:07:27.858Z,1.70
2023-04-02T05:10:37.841Z,1.48
2023-04-02T05:13:52.581Z,1.60
2023-04-02T05:17:04.812Z,1.58
2023-04-02T05:20:16.435Z,1.60
2023-04-02T05:23:34.177Z,1.67
2023-04-02T05:26:50.439Z,1.80
2023-04-02T05:30:06.341Z,1.70
2023-04-02T05:33:27.869Z,1.70
2023-04-02T05:36:33.088Z,1.80
2023-04-02T05:39:36.660Z,1.67
2023-04-02T05:42:43.354Z,1.70
2023-04-02T05:45:53.842Z,1.77
2023-04-02T05:49:01.912Z,1.80
2023-04-02T05:52:13.997Z,1.70
2023-04-02T05:55:16.793Z,1.73
2023-04-02T06:01:45.706Z,1.75
2023-04-02T06:05:07.715Z,1.58
2023-04-02T06:08:17.383Z,1.80
2023-04-02T06:11:28.574Z,1.80
2023-04-02T06:14:32.140Z,1.60
2023-04-02T06:18:03.970Z,1.65
2023-04-02T06:21:06.557Z,2.60
2023-04-02T06:24:14.462Z,1.60
2023-04-02T06:27:20.162Z,1.50
2023-04-02T06:30:28.284Z,1.67
2023-04-02T06:33:31.958Z,1.73
2023-04-02T06:36:37.278Z,1.73
2023-04-02T06:39:43.164Z,1.90
2023-04-02T06:42:48.495Z,1.63
2023-04-02T06:46:28.303Z,1.70
2023-04-02T06:50:16.752Z,1.77
2023-04-02T06:53:26.562Z,1.90
2023-04-02T06:57:09.116Z,2.25
2023-04-02T07:00:47.555Z,1.77
2023-04-02T07:03:59.479Z,1.77
2023-04-02T07:07:10.303Z,1.85
2023-04-02T07:10:16.128Z,1.88
2023-04-02T07:13:22.991Z,1.70
2023-04-02T07:19:32.286Z,1.77
2023-04-02T07:22:37.741Z,1.70
2023-04-02T07:25:43.058Z,1.85
2023-04-02T07:28:45.572Z,2.08
2023-04-02T07:31:47.900Z,1.95
2023-04-02T07:34:54.467Z,1.95
2023-04-02T07:37:56.753Z,2.00
2023-04-02T07:41:07.383Z,2.08
2023-04-02T07:44:10.972Z,2.00
2023-04-02T07:47:13.246Z,1.98
2023-04-02T07:50:20.401Z,2.60
2023-04-02T07:53:29.986Z,2.10
2023-04-02T07:56:35.981Z,2.25
2023-04-02T07:59:40.405Z,2.10
2023-04-02T08:02:43.003Z,2.03
2023-04-02T08:05:53.695Z,2.15
2023-04-02T08:08:57.712Z,2.15
2023-04-02T08:11:59.976Z,2.28
2023-04-02T08:15:03.190Z,2.10
2023-04-02T08:18:08.044Z,2.30
2023-04-02T08:21:13.742Z,2.28
2023-04-02T08:24:20.083Z,2.40
2023-04-02T08:27:28.572Z,2.45
2023-04-02T08:30:31.257Z,2.45
2023-04-02T08:33:38.842Z,2.28
2023-04-02T08:36:44.221Z,2.35
2023-04-02T08:39:50.912Z,2.38
2023-04-02T08:42:59.567Z,5.30
2023-04-02T08:46:31.029Z,2.80
2023-04-02T08:49:42.221Z,2.40
2023-04-02T08:52:46.819Z,2.30
2023-04-02T08:56:05.688Z,3.20
2023-04-02T08:59:29.117Z,2.75
2023-04-02T09:02:43.579Z,2.63
2023-04-02T09:05:50.424Z,2.30
2023-04-02T09:08:57.259Z,2.40
2023-04-02T09:12:04.304Z,2.42
2023-04-02T09:15:18.377Z,2.50
2023-04-02T09:18:23.283Z,2.30
2023-04-02T09:21:41.308Z,2.38
2023-04-02T09:24:53.676Z,2.30
2023-04-02T09:27:58.083Z,2.13
2023-04-02T09:31:17.059Z,2.50
2023-04-02T09:34:36.625Z,2.20
2023-04-02T09:37:40.440Z,2.50
2023-04-02T09:40:54.769Z,2.50
2023-04-02T09:44:23.469Z,2.28
2023-04-02T09:47:27.354Z,2.20
2023-04-02T09:50:36.105Z,2.20
2023-04-02T09:53:46.682Z,2.28
2023-04-02T09:57:01.747Z,2.65
2023-04-02T10:00:31.407Z,3.13
2023-04-02T10:03:51.421Z,2.47
2023-04-02T10:06:57.889Z,2.50
2023-04-02T10:10:34.641Z,2.40
2023-04-02T10:13:54.409Z,2.78
2023-04-02T10:17:10.090Z,2.42
2023-04-02T10:20:27.313Z,2.38
2023-04-02T10:23:31.984Z,2.55
2023-04-02T10:26:47.498Z,2.40
2023-04-02T10:30:14.748Z,2.55
2023-04-02T10:36:54.659Z,2.90
2023-04-02T10:40:42.287Z,2.47
2023-04-02T10:43:59.302Z,3.03
2023-04-02T10:47:22.437Z,2.58
2023-04-02T10:50:35.968Z,3.13
2023-04-02T10:54:04.879Z,2.60
2023-04-02T10:57:07.217Z,2.67
2023-04-02T11:00:15.949Z,2.97
2023-04-02T11:03:36.613Z,2.75
2023-04-02T11:06:47.141Z,2.85
2023-04-02T11:09:53.340Z,2.70
2023-04-02T11:13:07.859Z,3.00
2023-04-02T11:16:16.537Z,2.78
2023-04-02T11:19:18.989Z,3.20
2023-04-02T11:22:27.433Z,2.80
2023-04-02T11:25:29.740Z,2.85
2023-04-02T11:28:34.346Z,2.47
2023-04-02T11:31:36.965Z,2.50
2023-04-02T11:34:42.866Z,2.30
2023-04-02T11:37:46.148Z,2.25
2023-04-02T11:41:00.780Z,2.13
2023-04-02T11:44:03.178Z,2.13
2023-04-02T11:47:18.069Z,2.20
2023-04-02T11:50:34.760Z,2.20
2023-04-02T11:53:37.348Z,2.05
2023-04-02T11:57:05.164Z,1.90
2023-04-02T12:00:33.223Z,1.98
2023-04-02T12:04:06.089Z,2.10
2023-04-02T12:07:35.948Z,2.10
2023-04-02T12:13:58.532Z,2.00
2023-04-02T12:17:02.654Z,1.88
2023-04-02T12:20:10.331Z,1.75
2023-04-02T12:23:22.140Z,1.70
2023-04-02T12:26:37.089Z,1.60
2023-04-02T12:29:39.338Z,1.98
2023-04-02T12:32:41.910Z,1.65
2023-04-02T12:35:45.600Z,1.70
2023-04-02T12:38:54.421Z,1.70
2023-04-02T12:41:57.731Z,1.52
2023-04-02T12:45:01.094Z,2.00
2023-04-02T12:48:06.185Z,1.98
2023-04-02T12:51:10.683Z,1.63
2023-04-02T12:54:20.709Z,2.10
2023-04-02T12:57:26.198Z,2.42
2023-04-02T13:00:32.293Z,2.40
2023-04-02T13:03:37.946Z,2.42
2023-04-02T13:06:47.467Z,2.72
2023-04-02T13:09:56.581Z,2.40
2023-04-02T13:13:03.529Z,2.40
2023-04-02T13:16:14.979Z,2.13
2023-04-02T13:22:34.372Z,2.17
2023-04-02T13:25:39.102Z,2.22
2023-04-02T13:28:43.724Z,1.90
2023-04-02T13:31:46.037Z,2.17
2023-04-02T13:34:48.348Z,2.15
2023-04-02T13:37:52.915Z,1.88
2023-04-02T13:40:55.414Z,2.03
2023-04-02T13:44:00.670Z,1.80
2023-04-02T13:47:03.081Z,1.92
2023-04-02T13:50:05.709Z,1.92
2023-04-02T13:53:13.151Z,2.35
2023-04-02T13:56:15.549Z,1.85
2023-04-02T13:59:18.023Z,1.40
2023-04-02T14:02:25.617Z,1.67
2023-04-02T14:05:58.738Z,1.45
2023-04-02T14:09:04.205Z,1.40
2023-04-02T14:12:36.186Z,1.50
2023-04-02T14:16:01.918Z,1.77
2023-04-02T14:19:25.566Z,1.60
2023-04-02T14:22:42.748Z,1.70
2023-04-02T14:26:16.028Z,1.70
2023-04-02T14:29:40.270Z,2.03
2023-04-02T14:33:01.446Z,1.80
2023-04-02T14:36:11.414Z,1.80
2023-04-02T14:39:19.656Z,2.10
2023-04-02T14:42:27.576Z,2.72
2023-04-02T14:45:51.746Z,2.70
2023-04-02T14:48:59.238Z,2.95
2023-04-02T14:52:06.762Z,2.60
2023-04-02T14:55:21.639Z,2.15
2023-04-02T14:58:33.410Z,1.92
2023-04-02T15:01:43.269Z,2.50
2023-04-02T15:05:01.837Z,2.65
2023-04-02T15:08:30.552Z,2.08
2023-04-02T15:11:39.356Z,2.20
2023-04-02T15:14:52.440Z,2.45
2023-04-02T15:17:54.765Z,2.28
2023-04-02T15:21:31.460Z,2.75
2023-04-02T15:24:58.641Z,2.53
2023-04-02T15:28:07.303Z,2.20
2023-04-02T15:31:15.901Z,1.20
2023-04-02T15:34:32.037Z,1.50
2023-04-02T15:38:22.706Z,1.40
2023-04-02T15:41:32.931Z,1.52
2023-04-02T15:44:44.346Z,1.90
2023-04-02T15:48:07.923Z,1.85
2023-04-02T15:51:28.359Z,1.88
2023-04-02T15:54:42.378Z,1.92
2023-04-02T15:58:03.555Z,1.80
2023-04-02T16:01:18.784Z,2.20
2023-04-02T16:04:24.191Z,2.20
2023-04-02T16:07:52.065Z,2.38
2023-04-02T16:10:54.403Z,2.25
2023-04-02T16:14:18.286Z,2.10
2023-04-02T16:17:36.942Z,2.08
2023-04-02T16:20:47.454Z,2.03
2023-04-02T16:23:53.302Z,2.15
2023-04-02T16:27:14.808Z,2.97
2023-04-02T16:30:37.447Z,2.88
2023-04-02T16:34:09.440Z,2.70
2023-04-02T16:37:33.533Z,2.58
2023-04-02T16:41:08.840Z,2.67
2023-04-02T16:44:59.778Z,2.90
2023-04-02T16:48:15.497Z,3.50
2023-04-02T16:51:35.303Z,3.58
2023-04-02T16:54:49.136Z,3.20
2023-04-02T16:58:23.866Z,2.60
2023-04-02T17:01:45.026Z,2.83
2023-04-02T17:05:02.026Z,2.60
2023-04-02T17:08:28.790Z,2.80
2023-04-02T17:11:43.134Z,2.90
2023-04-02T17:15:05.790Z,2.78
2023-04-02T17:18:21.744Z,2.75
2023-04-02T17:21:26.525Z,2.10
2023-04-02T17:24:53.865Z,2.35
2023-04-02T17:27:56.880Z,1.98
2023-04-02T17:31:04.203Z,1.80
2023-04-02T17:34:24.315Z,2.00
2023-04-02T17:37:27.674Z,1.60
2023-04-02T17:40:43.166Z,2.00
2023-04-02T17:43:46.177Z,1.63
2023-04-02T17:47:00.885Z,1.63
2023-04-02T17:50:12.271Z,1.50
2023-04-02T17:53:36.872Z,1.80
2023-04-02T17:57:13.172Z,2.20
2023-04-02T18:00:33.559Z,2.25
2023-04-02T18:03:38.420Z,2.58
2023-04-02T18:06:52.072Z,2.30
2023-04-02T18:10:03.309Z,2.20
2023-04-02T18:13:08.250Z,2.35
2023-04-02T18:16:17.152Z,2.42
2023-04-02T18:19:50.127Z,2.55
2023-04-02T18:23:01.373Z,2.85
2023-04-02T18:26:06.571Z,2.70
2023-04-02T18:29:55.765Z,3.38
2023-04-02T18:33:29.727Z,3.17
2023-04-02T18:36:41.085Z,3.03
2023-04-02T18:39:49.265Z,3.30
2023-04-02T18:43:06.692Z,3.40
2023-04-02T18:46:22.800Z,3.33
2023-04-02T18:49:47.224Z,2.95
2023-04-02T18:52:50.856Z,2.97
2023-04-02T18:56:07.433Z,3.50
2023-04-02T18:59:15.709Z,3.70
2023-04-02T19:02:23.561Z,3.47
2023-04-02T19:05:41.405Z,3.72
2023-04-02T19:09:11.196Z,3.13
2023-04-02T19:12:19.353Z,3.10
2023-04-02T19:15:26.446Z,3.33
2023-04-02T19:18:51.223Z,3.33
2023-04-02T19:22:11.980Z,3.10
2023-04-02T19:25:33.073Z,3.30
2023-04-02T19:29:00.052Z,3.80
2023-04-02T19:32:12.975Z,3.13
2023-04-02T19:35:26.968Z,3.15
2023-04-02T19:38:44.580Z,3.35
2023-04-02T19:41:52.403Z,2.95
2023-04-02T19:44:59.489Z,3.80
2023-04-02T19:48:28.241Z,3.33
2023-04-02T19:51:33.588Z,3.28
2023-04-02T19:54:41.038Z,3.10
2023-04-02T19:57:46.406Z,3.08
2023-04-02T20:00:53.439Z,3.25
2023-04-02T20:03:55.741Z,3.13
2023-04-02T20:07:00.603Z,3.30
2023-04-02T20:10:05.566Z,2.88
2023-04-02T20:13:10.894Z,3.60
2023-04-02T20:16:14.515Z,3.20
2023-04-02T20:19:16.933Z,3.20
2023-04-02T20:22:19.286Z,3.08
2023-04-02T20:25:24.045Z,2.70
2023-04-02T20:28:30.096Z,2.72
2023-04-02T20:31:36.211Z,2.85
2023-04-02T20:34:39.140Z,2.97
2023-04-02T20:37:42.130Z,3.40
2023-04-02T20:40:45.313Z,2.53
2023-04-02T20:43:47.855Z,3.10
2023-04-02T20:46:52.719Z,3.20
2023-04-02T20:49:55.140Z,3.05
2023-04-02T20:53:01.666Z,3.00
2023-04-02T20:56:07.324Z,3.13
2023-04-02T21:02:12.149Z,2.92
2023-04-02T21:05:14.505Z,3.30
2023-04-02T21:08:16.832Z,3.17
2023-04-02T21:11:19.933Z,2.95
2023-04-02T21:14:24.792Z,2.85
2023-04-02T21:17:30.049Z,3.30
2023-04-02T21:20:33.411Z,3.00
2023-04-02T21:23:38.693Z,3.13
2023-04-02T21:26:43.759Z,3.08
2023-04-02T21:29:48.036Z,3.80
2023-04-02T21:32:50.343Z,3.97
2023-04-02T21:35:55.992Z,3.22
2023-04-02T21:42:03.688Z,2.45
2023-04-02T21:45:09.262Z,2.55
2023-04-02T21:48:11.656Z,2.55
2023-04-02T21:51:16.812Z,2.92
2023-04-02T21:54:22.295Z,3.17
2023-04-02T21:57:31.675Z,2.97
2023-04-02T22:00:34.038Z,3.42
2023-04-02T22:03:39.500Z,3.33
2023-04-02T22:06:42.556Z,3.72
2023-04-02T22:09:44.755Z,3.33
2023-04-02T22:12:49.474Z,3.00
2023-04-02T22:16:00.232Z,3.20
2023-04-02T22:19:08.764Z,3.42
2023-04-02T22:22:14.243Z,3.20
2023-04-02T22:25:16.871Z,3.50
2023-04-02T22:28:22.143Z,3.55
2023-04-02T22:31:29.481Z,3.42
2023-04-02T22:34:38.736Z,3.22
2023-04-02T22:37:41.111Z,3.30
2023-04-02T22:40:45.941Z,4.05
2023-04-02T22:43:48.948Z,3.40
2023-04-02T22:46:53.938Z,3.53
2023-04-02T22:49:58.976Z,3.78
2023-04-02T22:53:01.376Z,3.90
2023-04-02T22:56:13.279Z,3.95
2023-04-02T23:02:17.938Z,3.88
2023-04-02T23:05:20.899Z,3.58
2023-04-02T23:08:25.600Z,3.92
2023-04-02T23:11:28.747Z,4.00
2023-04-02T23:14:31.060Z,4.90
2023-04-02T23:17:38.386Z,3.95
2023-04-02T23:20:41.146Z,3.58
2023-04-02T23:23:49.279Z,4.13
2023-04-02T23:26:57.168Z,3.75
2023-04-02T23:30:01.762Z,4.05
2023-04-02T23:33:04.827Z,3.63
2023-04-02T23:36:17.082Z,3.92
2023-04-02T23:39:22.988Z,3.47
2023-04-02T23:42:28.414Z,4.20
2023-04-02T23:45:33.663Z,4.07
2023-04-02T23:48:35.936Z,3.92
2023-04-02T23:51:40.924Z,3.78
2023-04-02T23:54:45.691Z,3.85
2023-04-02T23:57:50.032Z,3.47
